.
WxDataArchive / Data Records for 2014-05-26
2014-05-25 May 2014 2014-05-27

Data Records for Monday, 26 May 2014

Time	Temp	Chill	HIndex	Humid	Dewpt	 Wind 	HiWind	WindDir	Rain 	Barom
-----	----	-----	------	-----	-----	------	------	-------	-----	-----
00:00	64.5	64.5	64.5	60	50.3	0	0	---	0.00	30.036 
00:05	64.7	64.7	64.7	58	49.6	0	0	---	0.00	30.036 
00:10	64.8	64.8	64.8	58	49.7	0	0	---	0.00	30.036 
00:15	65.0	65.0	65.0	58	49.9	0	0	---	0.00	30.035 
00:20	65.2	65.2	65.2	58	50.0	0	0	---	0.00	30.035 
00:25	65.2	65.2	65.2	58	50.0	0	0	---	0.00	30.035 
00:30	65.2	65.2	65.2	58	50.0	0	0	---	0.00	30.042 
00:35	65.0	65.0	65.0	58	49.9	0	0	---	0.00	30.042 
00:40	65.0	65.0	65.0	58	49.9	0	0	---	0.00	30.042 
00:45	64.8	64.8	64.8	59	50.1	0	0	---	0.00	30.043 
00:50	64.7	64.7	64.7	59	50.0	0	0	---	0.00	30.043 
00:55	64.5	64.5	64.5	60	50.3	0	0	---	0.00	30.043 
01:00	64.2	64.2	64.2	60	50.0	0	0	---	0.00	30.049 
01:05	64.0	64.0	64.0	62	50.7	0	0	---	0.00	30.049 
01:10	63.7	63.7	63.7	62	50.4	0	0	---	0.00	30.049 
01:15	63.5	63.5	63.5	62	50.2	0	0	---	0.00	30.048 
01:20	63.4	63.4	63.4	62	50.1	0	0	---	0.00	30.048 
01:25	63.4	63.4	63.4	62	50.1	0	0	---	0.00	30.048 
01:30	63.4	63.4	63.4	62	50.1	0	0	---	0.00	30.050 
01:35	63.2	63.2	63.2	63	50.4	0	0	---	0.00	30.050 
01:40	63.1	63.1	63.1	64	50.7	0	0	---	0.00	30.050 
01:45	62.6	62.6	62.6	65	50.7	0	0	---	0.00	30.053 
01:50	62.3	62.3	62.3	66	50.8	0	0	---	0.00	30.053 
01:55	61.8	61.8	61.8	66	50.3	0	0	---	0.00	30.053 
02:00	61.5	61.5	61.5	67	50.4	0	0	---	0.00	30.052 
02:05	61.2	61.2	61.2	68	50.5	0	0	---	0.00	30.052 
02:10	60.7	60.7	60.7	69	50.5	0	0	---	0.00	30.052 
02:15	60.5	60.5	60.5	69	50.3	0	0	---	0.00	30.049 
02:20	60.2	60.2	60.2	70	50.4	0	0	---	0.00	30.049 
02:25	59.9	59.9	59.9	71	50.5	0	0	---	0.00	30.049 
02:30	59.6	59.6	59.6	72	50.6	0	0	---	0.00	30.052 
02:35	59.5	59.5	59.5	73	50.8	0	0	---	0.00	30.052 
02:40	59.2	59.2	59.2	74	50.9	0	0	---	0.00	30.052 
02:45	59.0	59.0	59.0	74	50.7	0	0	---	0.00	30.050 
02:50	58.9	58.9	58.9	75	51.0	0	0	---	0.00	30.050 
02:55	58.7	58.7	58.7	76	51.2	0	0	---	0.00	30.050 
03:00	58.6	58.6	58.6	76	51.1	0	0	---	0.00	30.052 
03:05	58.6	58.6	58.6	76	51.1	0	0	---	0.00	30.052 
03:10	58.4	58.4	58.4	77	51.2	0	0	---	0.00	30.052 
03:15	58.3	58.3	58.3	77	51.1	0	0	---	0.00	30.051 
03:20	58.1	58.1	58.1	77	50.9	0	0	---	0.00	30.051 
03:25	58.0	58.0	58.0	78	51.2	0	0	---	0.00	30.051 
03:30	58.0	58.0	58.0	78	51.2	0	0	---	0.00	30.050 
03:35	57.8	57.8	57.8	78	51.0	0	0	---	0.00	30.050 
03:40	57.6	57.6	57.6	78	50.8	0	0	---	0.00	30.050 
03:45	57.6	57.6	57.6	78	50.8	0	0	---	0.00	30.051 
03:50	57.6	57.6	57.6	78	50.8	0	0	---	0.00	30.051 
03:55	57.6	57.6	57.6	78	50.8	0	0	---	0.00	30.051 
04:00	57.6	57.6	57.6	78	50.8	0	0	---	0.00	30.051 
04:05	57.6	57.6	57.6	78	50.8	0	0	---	0.00	30.051 
04:10	57.6	57.6	57.6	79	51.1	0	0	---	0.00	30.051 
04:15	57.6	57.6	57.6	79	51.1	0	0	---	0.00	30.052 
04:20	57.5	57.5	57.5	79	51.0	0	0	---	0.00	30.052 
04:25	57.3	57.3	57.3	79	50.8	0	0	---	0.00	30.052 
04:30	57.3	57.3	57.3	79	50.8	0	0	---	0.00	30.053 
04:35	57.2	57.2	57.2	80	51.1	0	0	---	0.00	30.053 
04:40	57.0	57.0	57.0	80	50.9	0	0	---	0.00	30.053 
04:45	56.9	56.9	56.9	81	51.1	0	0	---	0.00	30.054 
04:50	56.9	56.9	56.9	81	51.1	0	0	---	0.00	30.054 
04:55	56.7	56.7	56.7	81	50.9	0	0	---	0.00	30.054 
05:00	56.6	56.6	56.6	81	50.8	0	0	---	0.00	30.055 
05:05	56.6	56.6	56.6	81	50.8	0	0	---	0.00	30.055 
05:10	56.5	56.5	56.5	82	51.1	0	0	---	0.00	30.055 
05:15	56.3	56.3	56.3	82	50.9	0	0	---	0.00	30.054 
05:20	56.3	56.3	56.3	82	50.9	0	0	---	0.00	30.054 
05:25	56.2	56.2	56.2	82	50.8	0	0	---	0.00	30.054 
05:30	56.0	56.0	56.0	83	50.9	0	0	---	0.00	30.055 
05:35	55.9	55.9	55.9	83	50.8	0	0	---	0.00	30.055 
05:40	55.9	55.9	55.9	83	50.8	0	0	---	0.00	30.055 
05:45	55.7	55.7	55.7	84	50.9	0	0	---	0.00	30.057 
05:50	55.6	55.6	55.6	84	50.8	0	0	---	0.00	30.057 
05:55	55.6	55.6	55.6	84	50.8	0	0	---	0.00	30.057 
06:00	55.4	55.4	55.4	84	50.6	0	0	---	0.00	30.061 
06:05	55.3	55.3	55.3	84	50.5	0	0	---	0.00	30.061 
06:10	55.1	55.1	55.1	84	50.4	0	0	---	0.00	30.061 
06:15	55.1	55.1	55.1	85	50.7	0	0	---	0.00	30.061 
06:20	55.0	55.0	55.0	85	50.6	0	0	---	0.00	30.061 
06:25	55.0	55.0	55.0	85	50.6	0	0	---	0.00	30.061 
06:30	55.0	55.0	55.0	86	50.9	0	0	---	0.00	30.062 
06:35	55.0	55.0	55.0	86	50.9	0	0	---	0.00	30.062 
06:40	54.8	54.8	54.8	86	50.7	0	0	---	0.00	30.062 
06:45	54.8	54.8	54.8	86	50.7	0	0	---	0.00	30.061 
06:50	55.0	55.0	55.0	87	51.2	0	0	---	0.00	30.061 
06:55	55.0	55.0	55.0	87	51.2	0	0	---	0.00	30.061 
07:00	55.0	55.0	55.0	87	51.2	0	0	---	0.00	30.066 
07:05	55.1	55.1	55.1	87	51.3	0	0	---	0.00	30.066 
07:10	55.1	55.1	55.1	87	51.3	0	0	---	0.00	30.066 
07:15	55.4	55.4	55.4	88	51.9	0	0	---	0.00	30.069 
07:20	55.7	55.7	55.7	88	52.2	0	0	---	0.00	30.069 
07:25	56.2	56.2	56.2	87	52.4	0	0	---	0.00	30.069 
07:30	56.9	56.9	56.9	87	53.1	0	0	---	0.00	30.070 
07:35	57.5	57.5	57.5	87	53.7	0	0	---	0.00	30.070 
07:40	58.7	58.7	58.7	85	54.2	0	0	---	0.00	30.070 
07:45	60.1	60.1	60.1	82	54.6	0	0	---	0.00	30.068 
07:50	61.0	61.0	61.0	81	55.1	0	0	---	0.00	30.068 
07:55	61.8	61.8	61.8	80	55.6	0	0	---	0.00	30.068 
08:00	62.7	62.7	62.7	79	56.1	0	0	---	0.00	30.065 
08:05	63.5	63.5	63.5	77	56.2	0	0	---	0.00	30.065 
08:10	64.8	64.8	64.8	73	55.9	0	0	---	0.00	30.065 
08:15	66.1	66.1	66.1	70	56.0	0	0	---	0.00	30.063 
08:20	67.1	67.1	67.1	67	55.8	0	0	---	0.00	30.063 
08:25	67.9	67.9	67.9	66	56.1	0	1	90	0.00	30.063 
08:30	68.8	68.8	68.8	64	56.1	0	1	90	0.00	30.063 
08:35	69.4	69.4	69.4	64	56.7	0	0	---	0.00	30.063 
08:40	69.9	69.9	69.9	62	56.3	0	1	90	0.00	30.063 
08:45	70.4	70.4	70.4	62	56.7	0	0	---	0.00	30.064 
08:50	71.1	71.1	71.1	61	57.0	0	1	90	0.00	30.064 
08:55	71.6	71.6	71.6	60	57.0	0	1	90	0.00	30.064 
09:00	72.3	72.3	72.3	60	57.6	0	0	---	0.00	30.063 
09:05	72.7	72.7	72.7	57	56.6	0	1	90	0.00	30.063 
09:10	73.2	73.2	73.2	56	56.5	0	1	90	0.00	30.063 
09:15	74.0	74.0	74.0	56	57.3	0	1	90	0.00	30.064 
09:20	74.6	74.6	74.6	54	56.8	0	1	90	0.00	30.064 
09:25	75.1	75.1	77.6	53	56.8	0	2	90	0.00	30.064 
09:30	75.3	75.3	77.7	54	57.5	0	1	90	0.00	30.064 
09:35	75.8	75.8	78.0	54	57.9	0	2	90	0.00	30.064 
09:40	76.3	76.3	78.2	52	57.4	0	1	90	0.00	30.064 
09:45	76.7	76.7	78.5	53	58.3	0	1	90	0.00	30.062 
09:50	76.5	76.5	78.3	51	57.0	1	4	90	0.00	30.062 
09:55	76.3	76.3	78.2	50	56.3	0	3	90	0.00	30.062 
10:00	76.1	76.1	78.1	50	56.1	0	3	90	0.00	30.061 
10:05	75.8	75.8	77.9	47	54.1	0	2	90	0.00	30.061 
10:10	75.8	75.8	77.9	46	53.5	1	3	90	0.00	30.061 
10:15	76.3	76.3	78.2	47	54.6	0	2	90	0.00	30.067 
10:20	76.1	76.1	78.1	47	54.4	0	2	90	0.00	30.067 
10:25	75.8	75.8	77.8	43	51.7	1	3	112	0.00	30.067 
10:30	75.6	75.6	77.8	44	52.1	1	3	112	0.00	30.069 
10:35	75.4	75.4	77.8	46	53.2	1	3	112	0.00	30.069 
10:40	75.6	75.6	77.7	42	50.9	1	4	112	0.00	30.069 
10:45	76.0	76.0	78.0	47	54.3	0	1	112	0.00	30.066 
10:50	76.5	76.5	78.3	47	54.7	0	1	112	0.00	30.066 
10:55	77.2	77.2	78.3	40	51.0	0	2	112	0.00	30.066 
11:00	77.4	77.4	78.5	42	52.5	0	2	112	0.00	30.063 
11:05	77.6	77.6	78.5	39	50.7	0	2	112	0.00	30.063 
11:10	77.7	77.7	78.6	40	51.4	0	2	112	0.00	30.063 
11:15	78.1	78.1	78.9	42	53.1	0	2	112	0.00	30.056 
11:20	78.5	78.5	79.0	40	52.1	0	2	112	0.00	30.056 
11:25	78.3	78.3	78.7	37	49.9	1	2	112	0.00	30.056 
11:30	78.5	78.5	79.1	41	52.8	0	1	112	0.00	30.054 
11:35	79.0	79.0	79.5	43	54.6	0	2	112	0.00	30.054 
11:40	79.2	79.2	79.3	38	51.4	0	2	112	0.00	30.054 
11:45	79.0	79.0	79.3	40	52.6	0	2	112	0.00	30.057 
11:50	79.4	79.4	79.7	42	54.3	0	2	112	0.00	30.057 
11:55	79.6	79.6	80.0	44	55.7	0	4	112	0.00	30.057 
12:00	79.6	79.6	80.0	45	56.4	0	1	112	0.00	30.051 
12:05	79.6	79.6	80.0	45	56.4	0	2	112	0.00	30.051 
12:10	79.8	79.8	80.1	44	55.9	1	3	112	0.00	30.051 
12:15	79.6	79.6	80.2	47	57.6	1	3	112	0.00	30.047 
12:20	79.6	79.6	80.0	44	55.7	1	2	112	0.00	30.047 
12:25	79.8	79.8	80.4	47	57.8	0	2	112	0.00	30.047 
12:30	79.8	79.8	79.9	41	54.0	1	3	112	0.00	30.041 
12:35	79.9	79.9	80.1	43	55.4	1	5	112	0.00	30.041 
12:40	79.8	79.8	80.0	43	55.3	1	3	292	0.00	30.041 
12:45	79.9	79.9	80.3	45	56.6	1	3	292	0.00	30.032 
12:50	80.3	80.3	80.4	43	55.7	1	4	292	0.00	30.032 
12:55	80.7	80.7	81.0	46	58.0	1	3	315	0.00	30.032 
13:00	81.1	81.1	81.1	44	57.1	1	4	292	0.00	30.031 
13:05	81.2	81.2	81.3	45	57.8	0	3	292	0.00	30.031 
13:10	81.8	81.8	81.6	43	57.1	0	3	45	0.00	30.031 
13:15	82.0	82.0	81.9	44	57.9	1	3	22	0.00	30.028 
13:20	82.4	82.4	82.3	44	58.3	0	2	22	0.00	30.028 
13:25	82.2	82.2	81.7	41	56.1	1	4	270	0.00	30.028 
13:30	81.6	81.6	81.5	43	56.9	1	3	292	0.00	30.021 
13:35	81.8	81.8	82.0	46	59.0	1	2	338	0.00	30.021 
13:40	82.2	82.2	82.4	46	59.3	1	3	338	0.00	30.021 
13:45	82.6	82.6	82.7	45	59.1	0	2	315	0.00	30.016 
13:50	82.8	82.8	82.6	43	58.0	1	4	315	0.00	30.016 
13:55	82.6	82.6	82.5	44	58.4	2	4	315	0.00	30.016 
14:00	82.6	82.6	82.4	43	57.8	2	5	315	0.00	30.013 
14:05	82.8	82.8	83.0	46	59.9	1	4	292	0.00	30.013 
14:10	83.0	83.0	83.1	45	59.4	2	4	292	0.00	30.013 
14:15	82.8	82.8	82.7	44	58.6	2	5	292	0.00	30.013 
14:20	83.0	83.0	83.1	45	59.4	2	3	315	0.00	30.013 
14:25	83.6	83.6	83.9	46	60.6	1	3	315	0.00	30.013 
14:30	83.8	83.8	83.9	45	60.2	1	4	315	0.00	30.006 
14:35	83.8	83.8	83.7	44	59.5	1	4	315	0.00	30.006 
14:40	83.4	83.4	83.5	45	59.8	1	3	315	0.00	30.006 
14:45	83.6	83.6	83.9	46	60.6	1	4	315	0.00	30.000 
14:50	83.8	83.8	84.1	46	60.8	1	2	315	0.00	30.000 
14:55	84.3	84.3	84.5	45	60.6	1	3	315	0.00	30.000 
15:00	84.5	84.5	84.5	44	60.2	1	3	338	0.00	29.993 
15:05	84.5	84.5	84.7	45	60.8	1	4	338	0.00	29.993 
15:10	84.5	84.5	84.5	44	60.2	2	4	315	0.00	29.993 
15:15	84.7	84.7	85.0	45	61.0	0	1	315	0.00	29.986 
15:20	85.3	85.3	85.2	43	60.2	1	3	315	0.00	29.986 
15:25	85.7	85.7	85.7	43	60.6	1	3	315	0.00	29.986 
15:30	85.7	85.7	85.3	41	59.3	1	4	315	0.00	29.979 
15:35	85.3	85.3	84.8	41	58.9	1	3	315	0.00	29.979 
15:40	85.1	85.1	85.2	44	60.7	0	2	315	0.00	29.979 
15:45	85.1	85.1	85.0	43	60.1	1	3	315	0.00	29.974 
15:50	85.1	85.1	85.0	43	60.1	0	2	315	0.00	29.974 
15:55	85.1	85.1	85.0	43	60.1	1	2	315	0.00	29.974 
16:00	85.1	85.1	85.2	44	60.7	1	4	292	0.00	29.969 
16:05	85.1	85.1	85.0	43	60.1	0	1	315	0.00	29.969 
16:10	84.7	84.7	84.7	44	60.3	0	1	315	0.00	29.969 
16:15	84.7	84.7	84.7	44	60.3	0	1	315	0.00	29.962 
16:20	84.9	84.9	84.8	43	59.9	1	3	315	0.00	29.962 
16:25	85.1	85.1	85.0	43	60.1	0	1	315	0.00	29.962 
16:30	85.1	85.1	85.0	43	60.1	1	3	315	0.00	29.953 
16:35	85.5	85.5	85.7	44	61.1	0	1	315	0.00	29.953 
16:40	86.1	86.1	86.5	44	61.6	0	2	315	0.00	29.953 
16:45	86.1	86.1	86.5	44	61.6	0	2	315	0.00	29.945 
16:50	86.1	86.1	86.0	42	60.3	1	3	315	0.00	29.945 
16:55	86.1	86.1	86.2	43	61.0	0	2	315	0.00	29.945 
17:00	86.1	86.1	86.2	43	61.0	0	2	315	0.00	29.938 
17:05	86.3	86.3	86.2	42	60.5	0	1	315	0.00	29.938 
17:10	86.1	86.1	86.5	44	61.6	0	2	315	0.00	29.938 
17:15	85.9	85.9	85.7	42	60.1	1	3	315	0.00	29.938 
17:20	85.7	85.7	85.7	43	60.6	0	1	315	0.00	29.938 
17:25	85.5	85.5	85.7	44	61.1	1	3	315	0.00	29.938 
17:30	85.5	85.5	85.5	43	60.4	1	3	315	0.00	29.938 
17:35	85.5	85.5	85.5	43	60.4	0	2	315	0.00	29.938 
17:40	85.3	85.3	85.2	43	60.2	0	1	315	0.00	29.938 
17:45	85.1	85.1	85.4	45	61.3	0	3	315	0.00	29.935 
17:50	84.9	84.9	85.2	45	61.2	0	2	315	0.00	29.935 
17:55	84.5	84.5	84.5	44	60.2	0	1	315	0.00	29.935 
18:00	84.3	84.3	84.5	45	60.6	0	2	315	0.00	29.936 
18:05	84.3	84.3	84.5	45	60.6	0	1	315	0.00	29.936 
18:10	84.1	84.1	84.4	46	61.1	0	1	315	0.00	29.936 
18:15	84.1	84.1	84.3	45	60.4	0	1	315	0.00	29.933 
18:20	84.1	84.1	84.3	45	60.4	0	2	315	0.00	29.933 
18:25	84.1	84.1	84.3	45	60.4	0	1	315	0.00	29.933 
18:30	84.1	84.1	84.3	45	60.4	0	1	315	0.00	29.925 
18:35	84.1	84.1	84.4	46	61.1	0	1	315	0.00	29.925 
18:40	84.0	84.0	84.1	45	60.3	0	2	315	0.00	29.925 
18:45	84.1	84.1	84.4	46	61.1	0	1	315	0.00	29.923 
18:50	84.1	84.1	84.4	46	61.1	0	0	---	0.00	29.923 
18:55	84.3	84.3	84.7	46	61.2	0	1	315	0.00	29.923 
19:00	84.1	84.1	84.3	45	60.4	0	1	315	0.00	29.922 
19:05	84.1	84.1	84.3	45	60.4	0	2	315	0.00	29.922 
19:10	84.0	84.0	84.1	45	60.3	0	1	315	0.00	29.922 
19:15	84.0	84.0	84.5	47	61.6	0	1	315	0.00	29.915 
19:20	84.0	84.0	83.8	43	59.1	0	2	315	0.00	29.915 
19:25	84.0	84.0	84.0	44	59.7	0	2	315	0.00	29.915 
19:30	84.0	84.0	84.1	45	60.3	0	1	315	0.00	29.916 
19:35	84.0	84.0	84.3	46	61.0	0	2	315	0.00	29.916 
19:40	83.8	83.8	83.7	44	59.5	0	1	315	0.00	29.916 
19:45	83.8	83.8	83.6	43	58.9	0	1	315	0.00	29.912 
19:50	83.6	83.6	83.5	44	59.3	0	1	315	0.00	29.912 
19:55	83.6	83.6	83.5	44	59.3	0	1	315	0.00	29.912 
20:00	83.4	83.4	83.5	45	59.8	0	1	315	0.00	29.917 
20:05	83.2	83.2	83.3	45	59.6	0	0	---	0.00	29.917 
20:10	83.0	83.0	83.1	45	59.4	0	0	---	0.00	29.917 
20:15	82.8	82.8	83.0	46	59.9	0	0	---	0.00	29.908 
20:20	82.4	82.4	82.6	46	59.5	0	0	---	0.00	29.908 
20:25	82.2	82.2	82.5	47	59.9	0	0	---	0.00	29.908 
20:30	81.8	81.8	82.1	47	59.6	0	0	---	0.00	29.906 
20:35	81.4	81.4	81.9	48	59.8	0	0	---	0.00	29.906 
20:40	81.1	81.1	81.7	49	60.1	0	0	---	0.00	29.906 
20:45	80.7	80.7	81.4	50	60.3	0	0	---	0.00	29.906 
20:50	80.3	80.3	81.1	50	59.9	0	0	---	0.00	29.906 
20:55	79.9	79.9	80.7	50	59.6	0	0	---	0.00	29.906 
21:00	79.6	79.6	80.7	53	60.9	0	0	---	0.00	29.909 
21:05	79.0	79.0	80.2	53	60.4	0	0	---	0.00	29.909 
21:10	78.6	78.6	79.8	53	60.0	0	0	---	0.00	29.909 
21:15	78.3	78.3	79.7	54	60.3	0	0	---	0.00	29.911 
21:20	77.9	77.9	79.4	55	60.4	0	0	---	0.00	29.911 
21:25	77.9	77.9	79.4	55	60.4	0	0	---	0.00	29.911 
21:30	77.7	77.7	79.2	55	60.2	0	0	---	0.00	29.911 
21:35	77.7	77.7	79.3	56	60.7	0	0	---	0.00	29.911 
21:40	77.6	77.6	79.2	57	61.1	0	0	---	0.00	29.911 
21:45	77.4	77.4	79.1	57	61.0	0	0	---	0.00	29.916 
21:50	77.2	77.2	78.9	58	61.3	0	0	---	0.00	29.916 
21:55	77.0	77.0	78.8	58	61.1	0	0	---	0.00	29.916 
22:00	77.0	77.0	78.8	59	61.6	0	0	---	0.00	29.924 
22:05	76.8	76.8	78.6	59	61.4	0	0	---	0.00	29.924 
22:10	77.0	77.0	78.8	59	61.6	0	0	---	0.00	29.924 
22:15	77.0	77.0	78.8	59	61.6	0	0	---	0.00	29.929 
22:20	76.8	76.8	78.6	60	61.8	0	0	---	0.00	29.929 
22:25	76.8	76.8	78.6	60	61.8	0	1	315	0.00	29.929 
22:30	76.8	76.8	78.6	60	61.8	0	0	---	0.00	29.935 
22:35	76.7	76.7	78.5	60	61.7	0	0	---	0.00	29.935 
22:40	76.7	76.7	78.5	60	61.7	0	0	---	0.00	29.935 
22:45	76.8	76.8	78.6	60	61.8	0	0	---	0.00	29.932 
22:50	76.8	76.8	78.6	60	61.8	0	0	---	0.00	29.932 
22:55	77.0	77.0	78.8	60	62.0	0	0	---	0.00	29.932 
23:00	77.0	77.0	78.8	59	61.6	0	0	---	0.00	29.935 
23:05	77.0	77.0	78.8	59	61.6	0	1	315	0.00	29.935 
23:10	77.0	77.0	78.8	59	61.6	0	1	315	0.00	29.935 
23:15	77.2	77.2	78.9	58	61.3	0	0	---	0.00	29.933 
23:20	77.4	77.4	79.1	58	61.4	0	1	315	0.00	29.933 
23:25	77.7	77.7	79.3	57	61.2	0	2	315	0.00	29.933 
23:30	77.9	77.9	79.5	57	61.4	0	1	315	0.00	29.933 
23:35	77.7	77.7	79.3	57	61.2	0	1	315	0.00	29.933 
23:40	77.7	77.7	79.3	57	61.2	0	1	315	0.00	29.933 
23:45	77.7	77.7	79.3	57	61.2	0	1	315	0.00	29.934 
23:50	77.7	77.7	79.3	57	61.2	0	1	315	0.00	29.934 
23:55	77.7	77.7	79.3	57	61.2	0	1	315	0.00	29.934 

CoCoRaHS
IN-AL-39
A2 Web Hosting
Creative Commons License
GoDaddy
search engine by freefind advanced

loaded 2018-11-17 14:07:34 • last modified 2010-11-18 10:43:29
Privacy PolicyDisclaimer
• wx.awcolley.com is powered by PmWiki v.2002016 •
• all content (unless otherwise noted) © 2018 A W Colley